createdAt,value
2023-05-01T00:00:41.527Z,94921.00
2023-05-01T00:01:41.563Z,94921.00
2023-05-01T00:02:41.691Z,94925.00
2023-05-01T00:03:41.860Z,94921.00
2023-05-01T00:04:41.773Z,94919.00
2023-05-01T00:05:41.780Z,94919.00
2023-05-01T00:06:41.881Z,94921.00
2023-05-01T00:07:41.856Z,94919.00
2023-05-01T00:08:41.912Z,94919.00
2023-05-01T00:09:41.989Z,94917.00
2023-05-01T00:10:42.006Z,94917.00
2023-05-01T00:11:42.068Z,94917.00
2023-05-01T00:12:42.109Z,94915.00
2023-05-01T00:13:42.152Z,94917.00
2023-05-01T00:14:42.240Z,94917.00
2023-05-01T00:15:42.331Z,94915.00
2023-05-01T00:16:42.348Z,94915.00
2023-05-01T00:17:42.385Z,94915.00
2023-05-01T00:18:42.405Z,94911.00
2023-05-01T00:19:42.464Z,94913.00
2023-05-01T00:20:42.552Z,94913.00
2023-05-01T00:21:42.579Z,94913.00
2023-05-01T00:22:42.642Z,94915.00
2023-05-01T00:23:42.690Z,94915.00
2023-05-01T00:24:42.757Z,94911.00
2023-05-01T00:25:42.769Z,94911.00
2023-05-01T00:26:42.830Z,94913.00
2023-05-01T00:27:42.891Z,94911.00
2023-05-01T00:28:42.951Z,94913.00
2023-05-01T00:29:42.978Z,94911.00
2023-05-01T00:30:43.005Z,94905.00
2023-05-01T00:31:43.125Z,94905.00
2023-05-01T00:32:43.170Z,94907.00
2023-05-01T00:33:43.180Z,94905.00
2023-05-01T00:34:43.252Z,94907.00
2023-05-01T00:35:43.299Z,94905.00
2023-05-01T00:36:43.326Z,94905.00
2023-05-01T00:37:43.373Z,94905.00
2023-05-01T00:38:43.401Z,94903.00
2023-05-01T00:39:43.478Z,94905.00
2023-05-01T00:40:43.545Z,94907.00
2023-05-01T00:41:43.597Z,94909.00
2023-05-01T00:42:43.633Z,94909.00
2023-05-01T00:43:43.649Z,94911.00
2023-05-01T00:44:43.714Z,94909.00
2023-05-01T00:45:43.872Z,94907.00
2023-05-01T00:46:43.806Z,94902.00
2023-05-01T00:47:43.875Z,94902.00
2023-05-01T00:48:43.928Z,94900.00
2023-05-01T00:49:43.984Z,94900.00
2023-05-01T00:50:44.025Z,94898.00
2023-05-01T00:51:44.089Z,94900.00
2023-05-01T00:52:44.125Z,94898.00
2023-05-01T00:53:44.165Z,94900.00
2023-05-01T00:54:44.233Z,94902.00
2023-05-01T00:55:44.296Z,94898.00
2023-05-01T00:56:44.338Z,94900.00
2023-05-01T00:57:44.375Z,94900.00
2023-05-01T00:58:44.415Z,94898.00
2023-05-01T00:59:44.481Z,94894.00
2023-05-01T01:00:44.523Z,94892.00
2023-05-01T01:01:44.705Z,94884.00
2023-05-01T01:02:44.659Z,94894.00
2023-05-01T01:03:44.658Z,94892.00
2023-05-01T01:04:44.763Z,94884.00
2023-05-01T01:05:44.799Z,94884.00
2023-05-01T01:06:44.905Z,94884.00
2023-05-01T01:07:44.889Z,94882.00
2023-05-01T01:08:44.914Z,94882.00
2023-05-01T01:09:45.006Z,94882.00
2023-05-01T01:10:45.044Z,94884.00
2023-05-01T01:11:45.079Z,94892.00
2023-05-01T01:12:45.093Z,94894.00
2023-05-01T01:13:45.141Z,94892.00
2023-05-01T01:14:45.169Z,94882.00
2023-05-01T01:15:45.259Z,94884.00
2023-05-01T01:16:45.329Z,94880.00
2023-05-01T01:17:45.422Z,94882.00
2023-05-01T01:18:45.365Z,94880.00
2023-05-01T01:19:45.384Z,94882.00
2023-05-01T01:20:45.425Z,94882.00
2023-05-01T01:21:45.473Z,94882.00
2023-05-01T01:22:45.518Z,94878.00
2023-05-01T01:23:45.551Z,94882.00
2023-05-01T01:24:45.607Z,94884.00
2023-05-01T01:25:45.733Z,94884.00
2023-05-01T01:26:45.725Z,94882.00
2023-05-01T01:27:45.738Z,94884.00
2023-05-01T01:28:45.767Z,94882.00
2023-05-01T01:29:45.783Z,94884.00
2023-05-01T01:30:45.850Z,94882.00
2023-05-01T01:31:45.887Z,94882.00
2023-05-01T01:32:45.939Z,94884.00
2023-05-01T01:33:45.886Z,94884.00
2023-05-01T01:34:45.923Z,94880.00
2023-05-01T01:35:45.943Z,94880.00
2023-05-01T01:36:46.007Z,94878.00
2023-05-01T01:37:46.028Z,94878.00
2023-05-01T01:38:46.052Z,94876.00
2023-05-01T01:39:46.079Z,94874.00
2023-05-01T01:40:46.127Z,94880.00
2023-05-01T01:41:46.153Z,94876.00
2023-05-01T01:42:46.161Z,94876.00
2023-05-01T01:43:46.218Z,94874.00
2023-05-01T01:44:46.187Z,94872.00
2023-05-01T01:45:46.285Z,94872.00
2023-05-01T01:46:46.296Z,94872.00
2023-05-01T01:47:46.408Z,94870.00
2023-05-01T01:48:46.292Z,94870.00
2023-05-01T01:49:46.333Z,94868.00
2023-05-01T01:50:46.369Z,94870.00
2023-05-01T01:51:46.396Z,94866.00
2023-05-01T01:52:46.383Z,94866.00
2023-05-01T01:53:46.447Z,94864.00
2023-05-01T01:54:46.474Z,94864.00
2023-05-01T01:55:46.511Z,94868.00
2023-05-01T01:56:46.521Z,94870.00
2023-05-01T01:57:46.558Z,94868.00
2023-05-01T01:58:46.605Z,94864.00
2023-05-01T01:59:46.610Z,94862.00
2023-05-01T02:00:46.678Z,94864.00
2023-05-01T02:01:46.710Z,94864.00
2023-05-01T02:02:46.836Z,94864.00
2023-05-01T02:03:46.928Z,94864.00
2023-05-01T02:04:46.836Z,94862.00
2023-05-01T02:05:46.914Z,94860.00
2023-05-01T02:06:47.056Z,94860.00
2023-05-01T02:07:46.969Z,94860.00
2023-05-01T02:08:47.019Z,94860.00
2023-05-01T02:09:47.049Z,94862.00
2023-05-01T02:10:47.128Z,94860.00
2023-05-01T02:11:47.106Z,94858.00
2023-05-01T02:12:47.113Z,94858.00
2023-05-01T02:13:47.164Z,94860.00
2023-05-01T02:14:47.196Z,94862.00
2023-05-01T02:15:47.309Z,94858.00
2023-05-01T02:16:47.318Z,94860.00
2023-05-01T02:17:47.415Z,94856.00
2023-05-01T02:18:47.363Z,94856.00
2023-05-01T02:19:47.378Z,94854.00
2023-05-01T02:20:47.453Z,94854.00
2023-05-01T02:21:47.482Z,94856.00
2023-05-01T02:22:47.488Z,94853.00
2023-05-01T02:23:47.514Z,94849.00
2023-05-01T02:24:47.549Z,94849.00
2023-05-01T02:25:47.575Z,94847.00
2023-05-01T02:26:47.644Z,94851.00
2023-05-01T02:27:47.673Z,94851.00
2023-05-01T02:28:47.730Z,94851.00
2023-05-01T02:29:47.774Z,94847.00
2023-05-01T02:30:47.847Z,94845.00
2023-05-01T02:31:47.892Z,94841.00
2023-05-01T02:32:47.933Z,94839.00
2023-05-01T02:33:47.935Z,94839.00
2023-05-01T02:34:47.982Z,94837.00
2023-05-01T02:35:48.052Z,94841.00
2023-05-01T02:36:48.069Z,94841.00
2023-05-01T02:37:48.157Z,94843.00
2023-05-01T02:38:48.179Z,94843.00
2023-05-01T02:39:48.293Z,94839.00
2023-05-01T02:40:48.388Z,94843.00
2023-05-01T02:41:48.377Z,94837.00
2023-05-01T02:42:48.348Z,94839.00
2023-05-01T02:43:48.414Z,94837.00
2023-05-01T02:44:48.452Z,94837.00
2023-05-01T02:45:48.556Z,94837.00
2023-05-01T02:46:48.609Z,94837.00
2023-05-01T02:47:48.653Z,94835.00
2023-05-01T02:48:48.663Z,94839.00
2023-05-01T02:49:48.745Z,94837.00
2023-05-01T02:50:48.757Z,94835.00
2023-05-01T02:51:48.846Z,94831.00
2023-05-01T02:52:48.868Z,94831.00
2023-05-01T02:53:48.907Z,94829.00
2023-05-01T02:54:48.997Z,94831.00
2023-05-01T02:55:49.065Z,94829.00
2023-05-01T02:56:49.122Z,94829.00
2023-05-01T02:57:49.177Z,94829.00
2023-05-01T02:58:49.188Z,94829.00
2023-05-01T02:59:49.286Z,94831.00
2023-05-01T03:00:49.320Z,94829.00
2023-05-01T03:01:49.532Z,94829.00
2023-05-01T03:02:49.339Z,94827.00
2023-05-01T03:03:49.415Z,94827.00
2023-05-01T03:04:49.413Z,94823.00
2023-05-01T03:05:49.416Z,94823.00
2023-05-01T03:06:49.528Z,94823.00
2023-05-01T03:07:49.477Z,94827.00
2023-05-01T03:08:49.550Z,94825.00
2023-05-01T03:09:49.545Z,94825.00
2023-05-01T03:10:49.567Z,94825.00
2023-05-01T03:11:49.601Z,94825.00
2023-05-01T03:12:49.688Z,94823.00
2023-05-01T03:13:49.714Z,94823.00
2023-05-01T03:14:49.706Z,94825.00
2023-05-01T03:15:49.727Z,94821.00
2023-05-01T03:16:49.870Z,94819.00
2023-05-01T03:17:49.921Z,94819.00
2023-05-01T03:18:49.868Z,94817.00
2023-05-01T03:19:49.864Z,94817.00
2023-05-01T03:20:49.867Z,94815.00
2023-05-01T03:21:49.962Z,94817.00
2023-05-01T03:22:49.933Z,94815.00
2023-05-01T03:23:49.952Z,94815.00
2023-05-01T03:24:49.990Z,94813.00
2023-05-01T03:25:49.998Z,94815.00
2023-05-01T03:26:50.021Z,94809.00
2023-05-01T03:27:50.052Z,94809.00
2023-05-01T03:28:50.082Z,94809.00
2023-05-01T03:29:50.148Z,94811.00
2023-05-01T03:30:50.146Z,94811.00
2023-05-01T03:31:50.246Z,94807.00
2023-05-01T03:32:50.225Z,94807.00
2023-05-01T03:33:50.245Z,94804.00
2023-05-01T03:34:50.321Z,94806.00
2023-05-01T03:35:50.252Z,94804.00
2023-05-01T03:36:50.315Z,94806.00
2023-05-01T03:37:50.342Z,94804.00
2023-05-01T03:38:50.361Z,94806.00
2023-05-01T03:39:50.432Z,94806.00
2023-05-01T03:40:50.373Z,94804.00
2023-05-01T03:41:50.426Z,94800.00
2023-05-01T03:42:50.476Z,94800.00
2023-05-01T03:43:50.511Z,94798.00
2023-05-01T03:44:50.525Z,94794.00
2023-05-01T03:45:50.585Z,94798.00
2023-05-01T03:46:50.567Z,94798.00
2023-05-01T03:47:50.676Z,94802.00
2023-05-01T03:48:50.610Z,94800.00
2023-05-01T03:49:50.637Z,94798.00
2023-05-01T03:50:50.637Z,94796.00
2023-05-01T03:51:50.665Z,94794.00
2023-05-01T03:52:50.689Z,94794.00
2023-05-01T03:53:50.709Z,94796.00
2023-05-01T03:54:50.730Z,94796.00
2023-05-01T03:55:50.877Z,94794.00
2023-05-01T03:56:50.811Z,94794.00
2023-05-01T03:57:50.790Z,94794.00
2023-05-01T03:58:50.795Z,94792.00
2023-05-01T03:59:50.830Z,94796.00
2023-05-01T04:00:50.864Z,94792.00
2023-05-01T04:01:50.877Z,94792.00
2023-05-01T04:02:51.172Z,94792.00
2023-05-01T04:03:50.985Z,94790.00
2023-05-01T04:04:50.951Z,94790.00
2023-05-01T04:05:51.008Z,94790.00
2023-05-01T04:06:51.101Z,94790.00
2023-05-01T04:07:51.024Z,94790.00
2023-05-01T04:08:51.048Z,94788.00
2023-05-01T04:09:51.096Z,94788.00
2023-05-01T04:10:51.135Z,94790.00
2023-05-01T04:11:51.151Z,94788.00
2023-05-01T04:12:51.145Z,94788.00
2023-05-01T04:13:51.193Z,94788.00
2023-05-01T04:14:51.241Z,94786.00
2023-05-01T04:15:51.328Z,94784.00
2023-05-01T04:16:51.379Z,94788.00
2023-05-01T04:17:51.336Z,94786.00
2023-05-01T04:18:51.326Z,94788.00
2023-05-01T04:19:51.365Z,94790.00
2023-05-01T04:20:51.749Z,94788.00
2023-05-01T04:21:51.808Z,94788.00
2023-05-01T04:22:51.502Z,94788.00
2023-05-01T04:23:51.549Z,94788.00
2023-05-01T04:24:51.563Z,94790.00
2023-05-01T04:25:51.624Z,94788.00
2023-05-01T04:26:51.688Z,94788.00
2023-05-01T04:27:51.707Z,94788.00
2023-05-01T04:28:51.741Z,94786.00
2023-05-01T04:29:51.786Z,94784.00
2023-05-01T04:30:51.839Z,94788.00
2023-05-01T04:31:51.867Z,94784.00
2023-05-01T04:32:51.867Z,94782.00
2023-05-01T04:33:51.890Z,94784.00
2023-05-01T04:34:51.922Z,94786.00
2023-05-01T04:35:51.945Z,94788.00
2023-05-01T04:36:51.991Z,94788.00
2023-05-01T04:37:52.034Z,94786.00
2023-05-01T04:38:52.019Z,94784.00
2023-05-01T04:39:52.053Z,94782.00
2023-05-01T04:40:52.109Z,94784.00
2023-05-01T04:41:52.139Z,94780.00
2023-05-01T04:42:52.170Z,94782.00
2023-05-01T04:43:52.199Z,94782.00
2023-05-01T04:44:52.222Z,94782.00
2023-05-01T04:45:52.258Z,94782.00
2023-05-01T04:46:52.352Z,94782.00
2023-05-01T04:47:52.373Z,94784.00
2023-05-01T04:48:52.364Z,94784.00
2023-05-01T04:49:52.391Z,94784.00
2023-05-01T04:50:52.409Z,94784.00
2023-05-01T04:51:52.441Z,94788.00
2023-05-01T04:52:52.477Z,94784.00
2023-05-01T04:53:52.475Z,94788.00
2023-05-01T04:54:52.532Z,94786.00
2023-05-01T04:55:52.575Z,94788.00
2023-05-01T04:56:52.577Z,94784.00
2023-05-01T04:57:52.649Z,94790.00
2023-05-01T04:58:53.386Z,94788.00
2023-05-01T04:59:52.701Z,94792.00
2023-05-01T05:00:52.732Z,94790.00
2023-05-01T05:01:59.984Z,94792.00
2023-05-01T05:02:52.922Z,94794.00
2023-05-01T05:03:53.062Z,94796.00
2023-05-01T05:04:52.801Z,94796.00
2023-05-01T05:05:52.795Z,94794.00
2023-05-01T05:06:52.913Z,94794.00
2023-05-01T05:07:52.803Z,94794.00
2023-05-01T05:08:52.870Z,94792.00
2023-05-01T05:09:52.867Z,94794.00
2023-05-01T05:10:52.878Z,94796.00
2023-05-01T05:11:52.850Z,94800.00
2023-05-01T05:12:52.897Z,94796.00
2023-05-01T05:13:52.850Z,94796.00
2023-05-01T05:14:52.857Z,94796.00
2023-05-01T05:15:52.878Z,94796.00
2023-05-01T05:16:52.956Z,94796.00
2023-05-01T05:17:55.135Z,94794.00
2023-05-01T05:18:52.895Z,94796.00
2023-05-01T05:19:52.934Z,94792.00
2023-05-01T05:20:52.870Z,94792.00
2023-05-01T05:21:52.916Z,94794.00
2023-05-01T05:22:52.946Z,94792.00
2023-05-01T05:23:52.920Z,94790.00
2023-05-01T05:24:52.935Z,94788.00
2023-05-01T05:25:52.943Z,94788.00
2023-05-01T05:26:52.925Z,94786.00
2023-05-01T05:27:52.914Z,94786.00
2023-05-01T05:28:52.961Z,94788.00
2023-05-01T05:29:53.103Z,94786.00
2023-05-01T05:30:52.980Z,94790.00
2023-05-01T05:31:53.001Z,94792.00
2023-05-01T05:32:53.039Z,94788.00
2023-05-01T05:33:52.952Z,94792.00
2023-05-01T05:34:52.989Z,94788.00
2023-05-01T05:35:52.978Z,94790.00
2023-05-01T05:36:53.020Z,94790.00
2023-05-01T05:37:53.019Z,94790.00
2023-05-01T05:38:53.031Z,94790.00
2023-05-01T05:39:53.122Z,94794.00
2023-05-01T05:40:52.997Z,94794.00
2023-05-01T05:41:53.086Z,94792.00
2023-05-01T05:42:53.058Z,94794.00
2023-05-01T05:43:53.060Z,94796.00
2023-05-01T05:44:53.118Z,94794.00
2023-05-01T05:46:00.185Z,94792.00
2023-05-01T05:46:53.143Z,94794.00
2023-05-01T05:47:53.133Z,94794.00
2023-05-01T05:48:53.139Z,94794.00
2023-05-01T05:49:53.176Z,94794.00
2023-05-01T05:50:53.203Z,94792.00
2023-05-01T05:51:53.164Z,94794.00
2023-05-01T05:52:53.195Z,94792.00
2023-05-01T05:53:53.199Z,94794.00
2023-05-01T05:54:53.187Z,94796.00
2023-05-01T05:55:53.245Z,94796.00
2023-05-01T05:56:53.249Z,94792.00
2023-05-01T05:57:53.217Z,94794.00
2023-05-01T05:58:53.262Z,94792.00
2023-05-01T05:59:53.254Z,94794.00
2023-05-01T06:00:53.259Z,94794.00
2023-05-01T06:01:53.236Z,94796.00
2023-05-01T06:02:53.290Z,94796.00
2023-05-01T06:03:53.296Z,94796.00
2023-05-01T06:04:53.319Z,94796.00
2023-05-01T06:05:53.345Z,94796.00
2023-05-01T06:06:53.352Z,94796.00
2023-05-01T06:07:53.285Z,94798.00
2023-05-01T06:08:53.293Z,94792.00
2023-05-01T06:09:53.329Z,94792.00
2023-05-01T06:10:53.349Z,94790.00
2023-05-01T06:11:53.350Z,94788.00
2023-05-01T06:12:57.670Z,94790.00
2023-05-01T06:13:54.349Z,94790.00
2023-05-01T06:14:53.317Z,94790.00
2023-05-01T06:15:53.346Z,94788.00
2023-05-01T06:16:53.341Z,94790.00
2023-05-01T06:17:53.441Z,94790.00
2023-05-01T06:18:53.361Z,94788.00
2023-05-01T06:19:53.417Z,94788.00
2023-05-01T06:20:53.353Z,94788.00
2023-05-01T06:21:53.376Z,94786.00
2023-05-01T06:22:53.397Z,94788.00
2023-05-01T06:23:53.404Z,94786.00
2023-05-01T06:24:53.385Z,94786.00
2023-05-01T06:25:53.406Z,94786.00
2023-05-01T06:26:53.412Z,94784.00
2023-05-01T06:27:53.413Z,94786.00
2023-05-01T06:28:53.400Z,94788.00
2023-05-01T06:29:53.582Z,94788.00
2023-05-01T06:30:53.445Z,94786.00
2023-05-01T06:31:53.503Z,94786.00
2023-05-01T06:32:53.501Z,94786.00
2023-05-01T06:33:53.484Z,94786.00
2023-05-01T06:34:53.517Z,94786.00
2023-05-01T06:35:53.510Z,94784.00
2023-05-01T06:36:53.557Z,94780.00
2023-05-01T06:37:53.571Z,94776.00
2023-05-01T06:38:53.594Z,94776.00
2023-05-01T06:39:53.796Z,94774.00
2023-05-01T06:40:53.682Z,94780.00
2023-05-01T06:41:53.770Z,94780.00
2023-05-01T06:42:53.730Z,94780.00
2023-05-01T06:43:53.778Z,94780.00
2023-05-01T06:44:53.832Z,94780.00
2023-05-01T06:45:53.864Z,94778.00
2023-05-01T06:46:53.917Z,94780.00
2023-05-01T06:47:53.998Z,94780.00
2023-05-01T06:48:53.971Z,94782.00
2023-05-01T06:49:54.143Z,94784.00
2023-05-01T06:50:54.063Z,94784.00
2023-05-01T06:51:54.117Z,94784.00
2023-05-01T06:52:54.143Z,94786.00
2023-05-01T06:53:54.145Z,94786.00
2023-05-01T06:54:54.173Z,94786.00
2023-05-01T06:55:54.199Z,94786.00
2023-05-01T06:56:54.269Z,94786.00
2023-05-01T06:57:54.287Z,94788.00
2023-05-01T06:58:54.307Z,94788.00
2023-05-01T06:59:54.476Z,94786.00
2023-05-01T07:00:54.433Z,94786.00
2023-05-01T07:01:54.460Z,94788.00
2023-05-01T07:02:54.486Z,94784.00
2023-05-01T07:03:54.491Z,94786.00
2023-05-01T07:04:54.528Z,94782.00
2023-05-01T07:05:54.577Z,94784.00
2023-05-01T07:06:54.733Z,94782.00
2023-05-01T07:08:01.195Z,94784.00
2023-05-01T07:08:55.644Z,94780.00
2023-05-01T07:09:55.080Z,94784.00
2023-05-01T07:10:54.731Z,94784.00
2023-05-01T07:11:54.645Z,94782.00
2023-05-01T07:12:54.651Z,94782.00
2023-05-01T07:13:54.698Z,94786.00
2023-05-01T07:14:54.705Z,94784.00
2023-05-01T07:15:54.780Z,94786.00
2023-05-01T07:16:54.806Z,94782.00
2023-05-01T07:17:54.790Z,94784.00
2023-05-01T07:18:54.729Z,94784.00
2023-05-01T07:19:55.014Z,94784.00
2023-05-01T07:20:54.767Z,94784.00
2023-05-01T07:21:54.799Z,94786.00
2023-05-01T07:22:54.824Z,94786.00
2023-05-01T07:23:54.840Z,94786.00
2023-05-01T07:24:54.850Z,94790.00
2023-05-01T07:25:54.883Z,94786.00
2023-05-01T07:26:54.890Z,94786.00
2023-05-01T07:27:54.917Z,94784.00
2023-05-01T07:28:54.912Z,94786.00
2023-05-01T07:29:55.042Z,94782.00
2023-05-01T07:30:54.940Z,94782.00
2023-05-01T07:31:55.085Z,94780.00
2023-05-01T07:32:55.032Z,94780.00
2023-05-01T07:33:55.080Z,94780.00
2023-05-01T07:34:55.103Z,94778.00
2023-05-01T07:35:55.141Z,94776.00
2023-05-01T07:36:55.160Z,94776.00
2023-05-01T07:37:55.239Z,94776.00
2023-05-01T07:38:55.256Z,94776.00
2023-05-01T07:39:55.433Z,94776.00
2023-05-01T07:40:55.337Z,94776.00
2023-05-01T07:41:55.353Z,94776.00
2023-05-01T07:42:55.388Z,94778.00
2023-05-01T07:43:56.007Z,94776.00
2023-05-01T07:44:55.429Z,94770.00
2023-05-01T07:45:55.501Z,94772.00
2023-05-01T07:46:55.532Z,94772.00
2023-05-01T07:47:55.629Z,94768.00
2023-05-01T07:48:55.566Z,94766.00
2023-05-01T07:49:55.910Z,94770.00
2023-05-01T07:50:55.669Z,94770.00
2023-05-01T07:51:55.669Z,94770.00
2023-05-01T07:52:55.713Z,94772.00
2023-05-01T07:53:55.759Z,94774.00
2023-05-01T07:54:55.784Z,94776.00
2023-05-01T07:55:55.834Z,94776.00
2023-05-01T07:56:55.857Z,94774.00
2023-05-01T07:57:55.937Z,94774.00
2023-05-01T07:58:55.924Z,94774.00
2023-05-01T07:59:56.094Z,94774.00
2023-05-01T08:00:55.987Z,94772.00
2023-05-01T08:01:56.021Z,94768.00
2023-05-01T08:02:56.146Z,94768.00
2023-05-01T08:03:56.127Z,94770.00
2023-05-01T08:04:56.128Z,94768.00
2023-05-01T08:05:56.238Z,94768.00
2023-05-01T08:06:56.306Z,94768.00
2023-05-01T08:07:56.216Z,94764.00
2023-05-01T08:08:56.256Z,94766.00
2023-05-01T08:09:58.547Z,94764.00
2023-05-01T08:10:56.369Z,94764.00
2023-05-01T08:11:56.356Z,94762.00
2023-05-01T08:12:56.347Z,94764.00
2023-05-01T08:13:56.436Z,94762.00
2023-05-01T08:14:56.400Z,94760.00
2023-05-01T08:15:56.501Z,94764.00
2023-05-01T08:16:56.461Z,94764.00
2023-05-01T08:17:56.532Z,94766.00
2023-05-01T08:18:56.429Z,94766.00
2023-05-01T08:19:56.696Z,94766.00
2023-05-01T08:20:56.438Z,94768.00
2023-05-01T08:21:56.464Z,94770.00
2023-05-01T08:22:56.465Z,94768.00
2023-05-01T08:23:56.516Z,94768.00
2023-05-01T08:24:56.516Z,94766.00
2023-05-01T08:25:56.526Z,94766.00
2023-05-01T08:26:56.506Z,94764.00
2023-05-01T08:27:56.496Z,94764.00
2023-05-01T08:28:56.515Z,94766.00
2023-05-01T08:29:56.763Z,94762.00
2023-05-01T08:30:56.539Z,94762.00
2023-05-01T08:31:56.677Z,94762.00
2023-05-01T08:32:56.601Z,94762.00
2023-05-01T08:33:56.578Z,94762.00
2023-05-01T08:34:56.537Z,94766.00
2023-05-01T08:35:56.603Z,94766.00
2023-05-01T08:36:56.544Z,94764.00
2023-05-01T08:37:56.562Z,94764.00
2023-05-01T08:38:56.563Z,94762.00
2023-05-01T08:39:56.754Z,94760.00
2023-05-01T08:40:56.615Z,94759.00
2023-05-01T08:41:56.580Z,94757.00
2023-05-01T08:42:56.580Z,94757.00
2023-05-01T08:43:56.566Z,94755.00
2023-05-01T08:44:56.606Z,94757.00
2023-05-01T08:45:56.620Z,94757.00
2023-05-01T08:46:56.666Z,94757.00
2023-05-01T08:47:56.659Z,94757.00
2023-05-01T08:48:56.620Z,94755.00
2023-05-01T08:49:56.841Z,94753.00
2023-05-01T08:50:56.696Z,94753.00
2023-05-01T08:51:56.664Z,94753.00
2023-05-01T08:52:56.669Z,94749.00
2023-05-01T08:53:56.707Z,94749.00
2023-05-01T08:54:56.679Z,94749.00
2023-05-01T08:55:56.722Z,94749.00
2023-05-01T08:56:56.715Z,94749.00
2023-05-01T08:57:56.730Z,94745.00
2023-05-01T08:58:56.742Z,94749.00
2023-05-01T08:59:56.961Z,94749.00
2023-05-01T09:00:56.758Z,94747.00
2023-05-01T09:01:56.869Z,94749.00
2023-05-01T09:02:56.826Z,94751.00
2023-05-01T09:03:56.873Z,94749.00
2023-05-01T09:04:56.801Z,94751.00
2023-05-01T09:05:56.833Z,94749.00
2023-05-01T09:06:56.858Z,94749.00
2023-05-01T09:07:56.830Z,94743.00
2023-05-01T09:08:56.859Z,94741.00
2023-05-01T09:09:57.068Z,94737.00
2023-05-01T09:10:56.865Z,94735.00
2023-05-01T09:11:56.857Z,94739.00
2023-05-01T09:12:56.875Z,94739.00
2023-05-01T09:13:56.887Z,94741.00
2023-05-01T09:14:56.873Z,94739.00
2023-05-01T09:15:56.962Z,94737.00
2023-05-01T09:16:57.018Z,94739.00
2023-05-01T09:17:56.927Z,94737.00
2023-05-01T09:18:56.916Z,94737.00
2023-05-01T09:19:57.210Z,94737.00
2023-05-01T09:20:57.102Z,94737.00
2023-05-01T09:21:57.023Z,94737.00
2023-05-01T09:22:57.052Z,94737.00
2023-05-01T09:23:57.073Z,94739.00
2023-05-01T09:24:57.078Z,94735.00
2023-05-01T09:25:57.126Z,94735.00
2023-05-01T09:26:57.167Z,94735.00
2023-05-01T09:27:57.158Z,94731.00
2023-05-01T09:28:57.216Z,94729.00
2023-05-01T09:29:57.431Z,94727.00
2023-05-01T09:30:58.052Z,94727.00
2023-05-01T09:31:57.319Z,94727.00
2023-05-01T09:32:57.359Z,94723.00
2023-05-01T09:33:57.342Z,94721.00
2023-05-01T09:34:57.398Z,94719.00
2023-05-01T09:35:57.539Z,94717.00
2023-05-01T09:36:57.508Z,94713.00
2023-05-01T09:37:57.522Z,94711.00
2023-05-01T09:38:57.566Z,94709.00
2023-05-01T09:39:57.926Z,94707.00
2023-05-01T09:40:57.646Z,94707.00
2023-05-01T09:41:57.748Z,94705.00
2023-05-01T09:42:57.735Z,94704.00
2023-05-01T09:43:57.788Z,94702.00
2023-05-01T09:44:57.804Z,94704.00
2023-05-01T09:45:57.848Z,94704.00
2023-05-01T09:46:57.921Z,94704.00
2023-05-01T09:47:57.969Z,94705.00
2023-05-01T09:48:58.011Z,94702.00
2023-05-01T09:49:58.315Z,94698.00
2023-05-01T09:50:58.114Z,94702.00
2023-05-01T09:51:58.172Z,94702.00
2023-05-01T09:52:58.165Z,94700.00
2023-05-01T09:53:58.214Z,94704.00
2023-05-01T09:54:58.292Z,94700.00
2023-05-01T09:55:58.317Z,94702.00
2023-05-01T09:56:58.391Z,94698.00
2023-05-01T09:57:58.386Z,94702.00
2023-05-01T09:58:58.429Z,94698.00
2023-05-01T09:59:58.593Z,94698.00
2023-05-01T10:00:58.566Z,94696.00
2023-05-01T10:01:58.675Z,94694.00
2023-05-01T10:02:58.734Z,94694.00
2023-05-01T10:03:58.838Z,94692.00
2023-05-01T10:04:58.937Z,94688.00
2023-05-01T10:05:59.215Z,94688.00
2023-05-01T10:06:59.188Z,94686.00
2023-05-01T10:07:58.894Z,94688.00
2023-05-01T10:08:58.928Z,94686.00
2023-05-01T10:10:01.514Z,94682.00
2023-05-01T10:10:58.967Z,94684.00
2023-05-01T10:11:58.981Z,94682.00
2023-05-01T10:12:58.956Z,94680.00
2023-05-01T10:13:59.012Z,94678.00
2023-05-01T10:15:01.779Z,94676.00
2023-05-01T10:16:00.000Z,94674.00
2023-05-01T10:16:59.079Z,94676.00
2023-05-01T10:17:59.045Z,94676.00
2023-05-01T10:18:59.101Z,94676.00
2023-05-01T10:19:59.288Z,94676.00
2023-05-01T10:20:58.997Z,94674.00
2023-05-01T10:21:58.997Z,94672.00
2023-05-01T10:22:59.003Z,94674.00
2023-05-01T10:23:58.998Z,94672.00
2023-05-01T10:24:59.011Z,94674.00
2023-05-01T10:26:00.703Z,94672.00
2023-05-01T10:26:59.029Z,94670.00
2023-05-01T10:27:59.023Z,94672.00
2023-05-01T10:28:59.095Z,94672.00
2023-05-01T10:29:59.252Z,94668.00
2023-05-01T10:30:59.088Z,94674.00
2023-05-01T10:31:59.144Z,94674.00
2023-05-01T10:32:59.154Z,94668.00
2023-05-01T10:33:59.141Z,94670.00
2023-05-01T10:34:59.251Z,94670.00
2023-05-01T10:35:59.218Z,94666.00
2023-05-01T10:36:59.567Z,94668.00
2023-05-01T10:37:59.260Z,94666.00
2023-05-01T10:38:59.299Z,94662.00
2023-05-01T10:39:59.306Z,94664.00
2023-05-01T10:40:59.387Z,94660.00
2023-05-01T10:41:59.405Z,94657.00
2023-05-01T10:42:59.438Z,94657.00
2023-05-01T10:43:59.451Z,94655.00
2023-05-01T10:44:59.452Z,94653.00
2023-05-01T10:45:59.530Z,94655.00
2023-05-01T10:46:59.595Z,94649.00
2023-05-01T10:47:59.617Z,94651.00
2023-05-01T10:49:00.573Z,94651.00
2023-05-01T10:49:59.656Z,94649.00
2023-05-01T10:50:59.702Z,94649.00
2023-05-01T10:51:59.705Z,94647.00
2023-05-01T10:52:59.767Z,94643.00
2023-05-01T10:53:59.816Z,94643.00
2023-05-01T10:54:59.820Z,94641.00
2023-05-01T10:55:59.845Z,94641.00
2023-05-01T10:56:59.962Z,94639.00
2023-05-01T10:57:59.945Z,94635.00
2023-05-01T10:59:00.007Z,94635.00
2023-05-01T11:00:00.055Z,94637.00
2023-05-01T11:01:00.055Z,94625.00
2023-05-01T11:02:00.215Z,94625.00
2023-05-01T11:03:00.184Z,94625.00
2023-05-01T11:04:00.214Z,94623.00
2023-05-01T11:05:00.509Z,94621.00
2023-05-01T11:06:00.805Z,94619.00
2023-05-01T11:07:00.413Z,94617.00
2023-05-01T11:08:00.389Z,94617.00
2023-05-01T11:09:00.444Z,94617.00
2023-05-01T11:10:00.506Z,94617.00
2023-05-01T11:11:00.533Z,94615.00
2023-05-01T11:12:00.622Z,94613.00
2023-05-01T11:13:00.657Z,94615.00
2023-05-01T11:14:00.726Z,94613.00
2023-05-01T11:15:00.782Z,94613.00
2023-05-01T11:16:00.889Z,94612.00
2023-05-01T11:17:00.886Z,94608.00
2023-05-01T11:18:01.002Z,94608.00
2023-05-01T11:19:00.995Z,94612.00
2023-05-01T11:20:01.040Z,94608.00
2023-05-01T11:21:01.049Z,94612.00
2023-05-01T11:22:01.155Z,94610.00
2023-05-01T11:23:01.215Z,94608.00
2023-05-01T11:24:01.329Z,94610.00
2023-05-01T11:25:01.335Z,94612.00
2023-05-01T11:26:01.389Z,94606.00
2023-05-01T11:27:01.447Z,94604.00
2023-05-01T11:28:01.440Z,94608.00
2023-05-01T11:29:01.506Z,94604.00
2023-05-01T11:30:01.556Z,94600.00
2023-05-01T11:31:01.661Z,94600.00
2023-05-01T11:32:01.766Z,94602.00
2023-05-01T11:33:01.805Z,94600.00
2023-05-01T11:34:01.798Z,94598.00
2023-05-01T11:35:01.846Z,94596.00
2023-05-01T11:36:01.868Z,94594.00
2023-05-01T11:37:01.921Z,94592.00
2023-05-01T11:38:01.938Z,94594.00
2023-05-01T11:39:02.034Z,94590.00
2023-05-01T11:40:02.050Z,94588.00
2023-05-01T11:41:02.132Z,94590.00
2023-05-01T11:42:02.190Z,94588.00
2023-05-01T11:43:02.272Z,94590.00
2023-05-01T11:44:02.317Z,94588.00
2023-05-01T11:45:02.380Z,94590.00